Time;durP1;ratioP1;P1;durP2;ratioP2;P2;SDS_P1;SDS_P2;PMS_P1;PMS_P2;Temp;Humidity;BMP_temperature;BMP_pressure;BME280_temperature;BME280_humidity;BME280_pressure;Samples;Min_cycle;Max_cycle;Signal;HPM_P1;HPM_P2
2024/02/27 00:02:08;;;;;;;;;;;;;;;;;;5006932;28;20388;-64
2024/02/27 00:04:35;;;;;;;;;;;;;;;;;;5008685;28;19944;-64
2024/02/27 00:07:00;;;;;;;;;;;;;;;;;;5011215;28;19922;-64
2024/02/27 00:09:26;;;;;;;;;;;;;;;;;;5011782;28;20612;-64
2024/02/27 00:11:52;;;;;;;;;;;;;;;;;;5012154;28;19928;-64
2024/02/27 00:14:18;;;;;;;;;;;;;;;;;;5008701;28;19921;-64
2024/02/27 00:16:44;;;;;;;;;;;;;;;;;;5009355;28;20751;-64
2024/02/27 00:19:10;;;;;;;;;;;;;;;;;;5012111;28;19926;-64
2024/02/27 00:21:36;;;;;;;;;;;;;;;;;;5010574;28;20315;-64
2024/02/27 00:24:02;;;;;;;;;;;;;;;;;;5011850;28;19956;-64
2024/02/27 00:26:28;;;;;;;;;;;;;;;;;;5004669;28;19926;-64
2024/02/27 00:28:54;;;;;;;;;;;;;;;;;;5011623;28;19960;-65
2024/02/27 00:31:20;;;;;;;;;;;;;;;;;;5016919;28;19991;-63
2024/02/27 00:33:46;;;;;;;;;;;;;;;;;;5031491;28;19921;-64
2024/02/27 00:36:12;;;;;;;;;;;;;;;;;;5014987;28;20276;-64
2024/02/27 00:38:38;;;;;;;;;;;;;;;;;;5017866;28;19932;-64
2024/02/27 00:41:04;;;;;;;;;;;;;;;;;;5012083;28;20013;-64
2024/02/27 00:43:30;;;;;;;;;;;;;;;;;;5003313;28;20011;-64
2024/02/27 00:45:56;;;;;;;;;;;;;;;;;;4996734;28;19926;-64
2024/02/27 00:48:22;;;;;;;;;;;;;;;;;;5008128;28;19960;-64
2024/02/27 00:50:48;;;;;;;;;;;;;;;;;;5011352;28;20422;-64
2024/02/27 00:53:14;;;;;;;;;;;;;;;;;;5011774;28;19951;-63
2024/02/27 00:55:40;;;;;;;;;;;;;;;;;;5011588;28;20287;-63
2024/02/27 00:58:05;;;;;;;;;;;;;;;;;;5007976;28;20397;-64
2024/02/27 01:00:31;;;;;;;;;;;;;;;;;;5005035;28;20004;-64
2024/02/27 01:02:57;;;;;;;;;;;;;;;;;;5012478;28;19926;-64
2024/02/27 01:05:23;;;;;;;;;;;;;;;;;;5013859;28;20322;-64
2024/02/27 01:07:49;;;;;;;;;;;;;;;;;;5013682;28;19921;-64
2024/02/27 01:10:15;;;;;;;;;;;;;;;;;;5013775;28;19925;-64
2024/02/27 01:12:41;;;;;;;;;;;;;;;;;;5015083;28;19925;-64
2024/02/27 01:15:07;;;;;;;;;;;;;;;;;;5013834;28;20590;-64
2024/02/27 01:17:33;;;;;;;;;;;;;;;;;;5011266;28;19925;-64
2024/02/27 01:19:59;;;;;;;;;;;;;;;;;;5003736;28;19921;-64
2024/02/27 01:22:25;;;;;;;;;;;;;;;;;;4997014;28;20311;-64
2024/02/27 01:24:51;;;;;;;;;;;;;;;;;;5019937;28;20259;-64
2024/02/27 01:27:17;;;;;;;;;;;;;;;;;;5033849;28;19925;-66
2024/02/27 01:29:43;;;;;;;;;;;;;;;;;;5013962;28;19983;-64
2024/02/27 01:32:09;;;;;;;;;;;;;;;;;;5012741;28;20043;-64
2024/02/27 01:34:35;;;;;;;;;;;;;;;;;;5011073;28;20359;-64
2024/02/27 01:37:01;;;;;;;;;;;;;;;;;;5002548;28;19925;-65
2024/02/27 01:39:27;;;;;;;;;;;;;;;;;;5014792;28;19933;-64
2024/02/27 01:41:53;;;;;;;;;;;;;;;;;;5013923;28;19921;-64
2024/02/27 01:44:19;;;;;;;;;;;;;;;;;;5014393;28;19968;-64
2024/02/27 01:46:45;;;;;;;;;;;;;;;;;;5014220;28;20386;-64
2024/02/27 01:49:11;;;;;;;;;;;;;;;;;;5014293;28;19925;-64
2024/02/27 01:51:36;;;;;;;;;;;;;;;;;;5013970;28;19925;-64
2024/02/27 01:54:02;;;;;;;;;;;;;;;;;;4996380;28;19922;-64
2024/02/27 01:56:28;;;;;;;;;;;;;;;;;;5012082;28;19931;-64
2024/02/27 01:58:54;;;;;;;;;;;;;;;;;;4979948;28;19925;-64
2024/02/27 02:01:20;;;;;;;;;;;;;;;;;;4987525;28;19929;-64
2024/02/27 02:03:46;;;;;;;;;;;;;;;;;;5014092;28;19925;-64
2024/02/27 02:06:12;;;;;;;;;;;;;;;;;;4996071;28;20021;-64
2024/02/27 02:08:38;;;;;;;;;;;;;;;;;;5007063;28;19991;-64
2024/02/27 02:11:04;;;;;;;;;;;;;;;;;;5010575;28;19930;-64
2024/02/27 02:13:30;;;;;;;;;;;;;;;;;;4996010;28;19967;-64
2024/02/27 02:15:56;;;;;;;;;;;;;;;;;;5013236;28;19926;-64
2024/02/27 02:18:22;;;;;;;;;;;;;;;;;;5010567;28;20083;-64
2024/02/27 02:20:48;;;;;;;;;;;;;;;;;;5013743;28;19922;-64
2024/02/27 02:23:14;;;;;;;;;;;;;;;;;;5012291;28;19926;-64
2024/02/27 02:25:39;;;;;;;;;;;;;;;;;;5011133;28;20308;-64
2024/02/27 02:28:05;;;;;;;;;;;;;;;;;;5013365;28;19936;-64
2024/02/27 02:30:31;;;;;;;;;;;;;;;;;;5013370;28;20017;-64
2024/02/27 02:32:57;;;;;;;;;;;;;;;;;;4995945;28;19957;-64
2024/02/27 02:35:23;;;;;;;;;;;;;;;;;;5013229;28;19926;-64
2024/02/27 02:37:49;;;;;;;;;;;;;;;;;;5013835;28;20336;-64
2024/02/27 02:40:15;;;;;;;;;;;;;;;;;;5011957;28;20008;-64
2024/02/27 02:42:41;;;;;;;;;;;;;;;;;;5011688;28;19921;-64
2024/02/27 02:45:07;;;;;;;;;;;;;;;;;;5013860;28;20363;-64
2024/02/27 02:47:33;;;;;;;;;;;;;;;;;;5011080;28;20410;-64
2024/02/27 02:49:59;;;;;;;;;;;;;;;;;;5011280;28;20005;-64
2024/02/27 02:52:25;;;;;;;;;;;;;;;;;;5012273;28;19929;-64
2024/02/27 02:54:51;;;;;;;;;;;;;;;;;;4994331;28;19925;-64
2024/02/27 02:57:17;;;;;;;;;;;;;;;;;;5009339;28;19929;-64
2024/02/27 02:59:42;;;;;;;;;;;;;;;;;;5010024;28;19921;-64
2024/02/27 03:02:08;;;;;;;;;;;;;;;;;;5012117;28;19922;-64
2024/02/27 03:04:34;;;;;;;;;;;;;;;;;;5012069;28;19932;-64
2024/02/27 03:07:00;;;;;;;;;;;;;;;;;;5012602;28;20319;-64
2024/02/27 03:09:26;;;;;;;;;;;;;;;;;;5012504;28;20413;-64
2024/02/27 03:11:52;;;;;;;;;;;;;;;;;;5012720;28;19928;-64
2024/02/27 03:14:18;;;;;;;;;;;;;;;;;;5012947;28;19929;-64
2024/02/27 03:16:45;;;;;;;;;;;;;;;;;;5011819;28;19936;-64
2024/02/27 03:19:11;;;;;;;;;;;;;;;;;;5011003;28;20030;-64
2024/02/27 03:21:37;;;;;;;;;;;;;;;;;;5012237;28;20359;-64
2024/02/27 03:24:03;;;;;;;;;;;;;;;;;;5012221;28;19921;-64
2024/02/27 03:26:29;;;;;;;;;;;;;;;;;;4992901;28;20041;-64
2024/02/27 03:28:55;;;;;;;;;;;;;;;;;;5012561;28;19971;-64
2024/02/27 03:31:21;;;;;;;;;;;;;;;;;;5011000;28;19926;-64
2024/02/27 03:33:47;;;;;;;;;;;;;;;;;;5010822;28;19932;-64
2024/02/27 03:36:13;;;;;;;;;;;;;;;;;;5012458;28;19947;-64
2024/02/27 03:38:40;;;;;;;;;;;;;;;;;;5012444;28;20364;-64
2024/02/27 03:41:06;;;;;;;;;;;;;;;;;;5060194;22;19925;-64
2024/02/27 03:43:32;;;;;;;;;;;;;;;;;;5070011;28;19925;-65
2024/02/27 03:45:58;;;;;;;;;;;;;;;;;;5054125;28;19925;-65
2024/02/27 03:48:24;;;;;;;;;;;;;;;;;;5054590;28;20313;-65
2024/02/27 03:50:50;;;;;;;;;;;;;;;;;;5071607;28;19921;-65
2024/02/27 03:53:16;;;;;;;;;;;;;;;;;;5071363;28;19931;-65
2024/02/27 03:55:41;;;;;;;;;;;;;;;;;;5051805;28;19924;-65
2024/02/27 03:58:08;;;;;;;;;;;;;;;;;;5065273;28;20365;-65
2024/02/27 04:00:34;;;;;;;;;;;;;;;;;;5062944;28;19932;-65
2024/02/27 04:03:00;;;;;;;;;;;;;;;;;;5071580;28;19925;-65
2024/02/27 04:05:26;;;;;;;;;;;;;;;;;;5071087;28;19920;-65
2024/02/27 04:07:52;;;;;;;;;;;;;;;;;;5071010;28;19931;-65
2024/02/27 04:10:19;;;;;;;;;;;;;;;;;;5069820;28;19984;-65
2024/02/27 04:12:45;;;;;;;;;;;;;;;;;;5069273;28;19973;-65
2024/02/27 04:15:11;;;;;;;;;;;;;;;;;;5071510;28;20015;-65
2024/02/27 04:17:37;;;;;;;;;;;;;;;;;;5069717;28;20356;-65
2024/02/27 04:20:05;;;;;;;;;;;;;;;;;;5068412;28;19920;-65
2024/02/27 04:22:31;;;;;;;;;;;;;;;;;;5070596;28;20034;-65
2024/02/27 04:24:57;;;;;;;;;;;;;;;;;;5062309;28;20404;-66
2024/02/27 04:27:23;;;;;;;;;;;;;;;;;;5062901;28;19925;-65
2024/02/27 04:29:49;;;;;;;;;;;;;;;;;;5058059;28;19924;-66
2024/02/27 04:32:15;;;;;;;;;;;;;;;;;;5053344;28;19925;-65
2024/02/27 04:34:41;;;;;;;;;;;;;;;;;;5052254;28;19931;-65
2024/02/27 04:37:07;;;;;;;;;;;;;;;;;;5071004;28;19925;-66
2024/02/27 04:39:33;;;;;;;;;;;;;;;;;;5074778;28;19929;-66
2024/02/27 04:41:59;;;;;;;;;;;;;;;;;;5075122;28;19947;-65
2024/02/27 04:44:25;;;;;;;;;;;;;;;;;;5068305;28;19924;-65
2024/02/27 04:46:51;;;;;;;;;;;;;;;;;;5071105;28;19925;-65
2024/02/27 04:49:16;;;;;;;;;;;;;;;;;;5054003;28;19920;-65
2024/02/27 04:51:43;;;;;;;;;;;;;;;;;;5057171;28;20007;-65
2024/02/27 04:54:09;;;;;;;;;;;;;;;;;;5075152;28;19967;-65
2024/02/27 04:56:34;;;;;;;;;;;;;;;;;;5073997;28;19975;-65
2024/02/27 04:59:00;;;;;;;;;;;;;;;;;;5075038;28;19927;-65
2024/02/27 05:01:26;;;;;;;;;;;;;;;;;;5073294;28;19929;-65
2024/02/27 05:03:52;;;;;;;;;;;;;;;;;;5072546;28;19924;-65
2024/02/27 05:06:18;;;;;;;;;;;;;;;;;;5056900;28;19999;-65
2024/02/27 05:08:44;;;;;;;;;;;;;;;;;;5073414;28;19920;-65
2024/02/27 05:11:10;;;;;;;;;;;;;;;;;;5073183;28;19928;-65
2024/02/27 05:13:36;;;;;;;;;;;;;;;;;;5055557;28;20384;-65
2024/02/27 05:16:02;;;;;;;;;;;;;;;;;;5074707;28;19927;-65
2024/02/27 05:18:28;;;;;;;;;;;;;;;;;;5074548;28;19921;-65
2024/02/27 05:20:54;;;;;;;;;;;;;;;;;;5072552;28;19924;-65
2024/02/27 05:23:20;;;;;;;;;;;;;;;;;;5074008;28;19932;-65
2024/02/27 05:25:46;;;;;;;;;;;;;;;;;;5061848;28;19925;-65
2024/02/27 05:28:12;;;;;;;;;;;;;;;;;;5072411;28;20362;-65
2024/02/27 05:30:38;;;;;;;;;;;;;;;;;;5073018;28;19925;-65
2024/02/27 05:33:04;;;;;;;;;;;;;;;;;;5074215;28;19924;-65
2024/02/27 05:35:30;;;;;;;;;;;;;;;;;;5073221;28;19932;-65
2024/02/27 05:37:56;;;;;;;;;;;;;;;;;;5074606;28;20033;-65
2024/02/27 05:40:22;;;;;;;;;;;;;;;;;;5074222;28;20533;-65
2024/02/27 05:42:47;;;;;;;;;;;;;;;;;;5069904;28;19982;-65
2024/02/27 05:45:14;;;;;;;;;;;;;;;;;;5062897;28;20007;-65
2024/02/27 05:47:40;;;;;;;;;;;;;;;;;;5070586;28;19921;-65
2024/02/27 05:50:06;;;;;;;;;;;;;;;;;;5073274;28;20512;-65
2024/02/27 05:52:32;;;;;;;;;;;;;;;;;;5056601;28;19970;-65
2024/02/27 05:54:58;;;;;;;;;;;;;;;;;;5053968;28;19932;-65
2024/02/27 05:57:24;;;;;;;;;;;;;;;;;;5063608;28;19927;-65
2024/02/27 05:59:50;;;;;;;;;;;;;;;;;;5068110;28;20389;-65
2024/02/27 06:02:15;;;;;;;;;;;;;;;;;;5071002;28;19960;-65
2024/02/27 06:04:41;;;;;;;;;;;;;;;;;;5073877;28;19921;-65
2024/02/27 06:07:08;;;;;;;;;;;;;;;;;;5073750;28;20013;-65
2024/02/27 06:09:34;;;;;;;;;;;;;;;;;;5073711;28;20023;-65
2024/02/27 06:12:00;;;;;;;;;;;;;;;;;;5071689;28;19960;-65
2024/02/27 06:14:26;;;;;;;;;;;;;;;;;;5054685;28;20011;-65
2024/02/27 06:16:52;;;;;;;;;;;;;;;;;;5072370;28;20442;-65
2024/02/27 06:19:19;;;;;;;;;;;;;;;;;;5073460;28;19930;-65
2024/02/27 06:24:29;;;;;;;;;;;;;;;;;;5073063;28;20324;-65
2024/02/27 06:26:55;;;;;;;;;;;;;;;;;;5073510;28;19927;-65
2024/02/27 06:29:21;;;;;;;;;;;;;;;;;;5070819;28;20014;-65
2024/02/27 06:31:47;;;;;;;;;;;;;;;;;;5073116;28;19966;-65
2024/02/27 06:34:13;;;;;;;;;;;;;;;;;;5070832;28;19924;-65
2024/02/27 06:36:39;;;;;;;;;;;;;;;;;;5072165;28;19928;-66
2024/02/27 06:39:05;;;;;;;;;;;;;;;;;;5072176;28;19928;-66
2024/02/27 06:41:31;;;;;;;;;;;;;;;;;;5072003;28;19924;-66
2024/02/27 06:43:57;;;;;;;;;;;;;;;;;;5071236;28;19921;-65
2024/02/27 06:46:23;;;;;;;;;;;;;;;;;;5071629;28;19920;-65
2024/02/27 06:48:49;;;;;;;;;;;;;;;;;;5068573;28;19928;-66
2024/02/27 06:51:15;;;;;;;;;;;;;;;;;;5064263;28;19925;-66
2024/02/27 06:53:42;;;;;;;;;;;;;;;;;;5053903;28;20401;-65
2024/02/27 06:56:09;;;;;;;;;;;;;;;;;;5052469;28;20259;-65
2024/02/27 06:58:35;;;;;;;;;;;;;;;;;;5072499;28;20378;-65
2024/02/27 07:01:01;;;;;;;;;;;;;;;;;;5069976;28;20366;-65
2024/02/27 07:03:27;;;;;;;;;;;;;;;;;;5069998;28;19920;-66
2024/02/27 07:05:53;;;;;;;;;;;;;;;;;;5072650;28;19924;-65
2024/02/27 07:08:19;;;;;;;;;;;;;;;;;;5064147;28;19932;-65
2024/02/27 07:10:45;;;;;;;;;;;;;;;;;;5052707;28;20424;-66
2024/02/27 07:13:12;;;;;;;;;;;;;;;;;;5053806;28;19924;-65
2024/02/27 07:15:38;;;;;;;;;;;;;;;;;;5071004;28;19929;-66
2024/02/27 07:18:04;;;;;;;;;;;;;;;;;;5072367;28;19927;-66
2024/02/27 07:20:31;;;;;;;;;;;;;;;;;;5071753;28;19921;-66
2024/02/27 07:22:57;;;;;;;;;;;;;;;;;;5070186;28;20010;-66
2024/02/27 07:25:23;;;;;;;;;;;;;;;;;;5062560;28;20011;-66
2024/02/27 07:27:50;;;;;;;;;;;;;;;;;;5052260;28;20348;-66
2024/02/27 07:30:16;;;;;;;;;;;;;;;;;;5056079;28;19947;-64
2024/02/27 07:32:42;;;;;;;;;;;;;;;;;;5065990;28;20335;-65
2024/02/27 07:35:08;;;;;;;;;;;;;;;;;;5065806;28;19928;-65
2024/02/27 07:37:34;;;;;;;;;;;;;;;;;;5060389;28;20138;-66
2024/02/27 07:40:00;;;;;;;;;;;;;;;;;;5032518;28;20053;-66
2024/02/27 07:42:26;;;;;;;;;;;;;;;;;;5060698;28;19989;-66
2024/02/27 07:44:52;;;;;;;;;;;;;;;;;;5050538;28;20491;-66
2024/02/27 07:47:18;;;;;;;;;;;;;;;;;;5052139;28;19921;-66
2024/02/27 07:49:44;;;;;;;;;;;;;;;;;;5063501;28;19921;-66
2024/02/27 07:52:10;;;;;;;;;;;;;;;;;;5057441;28;20400;-66
2024/02/27 07:54:35;;;;;;;;;;;;;;;;;;5063173;28;19931;-66
2024/02/27 07:57:02;;;;;;;;;;;;;;;;;;5049176;28;19921;-66
2024/02/27 07:59:27;;;;;;;;;;;;;;;;;;5055033;28;19946;-66
2024/02/27 08:01:53;;;;;;;;;;;;;;;;;;5071051;28;20300;-66
2024/02/27 08:04:19;;;;;;;;;;;;;;;;;;5065730;28;20012;-66
2024/02/27 08:06:45;;;;;;;;;;;;;;;;;;5071381;28;19931;-65
2024/02/27 08:09:11;;;;;;;;;;;;;;;;;;5051120;28;19966;-65
2024/02/27 08:11:37;;;;;;;;;;;;;;;;;;5061166;28;19924;-65
2024/02/27 08:14:03;;;;;;;;;;;;;;;;;;5067536;28;19931;-65
2024/02/27 08:16:29;;;;;;;;;;;;;;;;;;5067426;28;19928;-65
2024/02/27 08:18:55;;;;;;;;;;;;;;;;;;5064244;28;20019;-66
2024/02/27 08:21:21;;;;;;;;;;;;;;;;;;5074913;28;20432;-66
2024/02/27 08:23:47;;;;;;;;;;;;;;;;;;5072532;28;19920;-65
2024/02/27 08:26:13;;;;;;;;;;;;;;;;;;5075605;28;19920;-65
2024/02/27 08:28:39;;;;;;;;;;;;;;;;;;5056310;28;19968;-66
2024/02/27 08:31:05;;;;;;;;;;;;;;;;;;5053871;28;20605;-64
2024/02/27 08:33:31;;;;;;;;;;;;;;;;;;5064467;28;20011;-65
2024/02/27 08:35:57;;;;;;;;;;;;;;;;;;5075389;28;19920;-65
2024/02/27 08:38:23;;;;;;;;;;;;;;;;;;5074981;28;19931;-65
2024/02/27 08:40:49;;;;;;;;;;;;;;;;;;5060889;28;20008;-65
2024/02/27 08:43:15;;;;;;;;;;;;;;;;;;5053989;28;19956;-65
2024/02/27 08:45:41;;;;;;;;;;;;;;;;;;5053980;28;19963;-66
2024/02/27 08:48:07;;;;;;;;;;;;;;;;;;5053603;28;19968;-65
2024/02/27 08:50:33;;;;;;;;;;;;;;;;;;5054929;28;19920;-65
2024/02/27 08:52:59;;;;;;;;;;;;;;;;;;5054401;28;20236;-65
2024/02/27 08:55:25;;;;;;;;;;;;;;;;;;5057406;28;20670;-65
2024/02/27 08:57:51;;;;;;;;;;;;;;;;;;5073348;28;19924;-65
2024/02/27 09:00:16;;;;;;;;;;;;;;;;;;5074811;28;19943;-65
2024/02/27 09:02:42;;;;;;;;;;;;;;;;;;5074842;28;20366;-65
2024/02/27 09:05:08;;;;;;;;;;;;;;;;;;5057621;28;20298;-65
2024/02/27 09:07:34;;;;;;;;;;;;;;;;;;5063354;28;19932;-65
2024/02/27 09:10:00;;;;;;;;;;;;;;;;;;5074956;28;19920;-65
2024/02/27 09:12:27;;;;;;;;;;;;;;;;;;5074241;28;19925;-66
2024/02/27 09:14:53;;;;;;;;;;;;;;;;;;5072679;28;19975;-66
2024/02/27 09:17:18;;;;;;;;;;;;;;;;;;5072034;28;20310;-66
2024/02/27 09:19:44;;;;;;;;;;;;;;;;;;5062671;28;19971;-66
2024/02/27 09:22:10;;;;;;;;;;;;;;;;;;5072687;28;20400;-66
2024/02/27 09:24:36;;;;;;;;;;;;;;;;;;5068200;28;19924;-65
2024/02/27 09:27:02;;;;;;;;;;;;;;;;;;5067289;28;19921;-66
2024/02/27 09:29:28;;;;;;;;;;;;;;;;;;5070228;28;19924;-66
2024/02/27 09:31:54;;;;;;;;;;;;;;;;;;5072922;28;20431;-66
2024/02/27 09:34:20;;;;;;;;;;;;;;;;;;5070164;28;19932;-66
2024/02/27 09:36:46;;;;;;;;;;;;;;;;;;5066790;28;19924;-66
2024/02/27 09:39:12;;;;;;;;;;;;;;;;;;5052869;28;20389;-66
2024/02/27 09:41:38;;;;;;;;;;;;;;;;;;5068449;28;19935;-66
2024/02/27 09:44:04;;;;;;;;;;;;;;;;;;5074091;28;19925;-64
2024/02/27 09:46:30;;;;;;;;;;;;;;;;;;5060865;28;19927;-65
2024/02/27 09:48:55;;;;;;;;;;;;;;;;;;5064837;28;20261;-65
2024/02/27 09:51:21;;;;;;;;;;;;;;;;;;5073340;28;19925;-65
2024/02/27 09:53:47;;;;;;;;;;;;;;;;;;5067556;28;20345;-65
2024/02/27 09:56:15;;;;;;;;;;;;;;;;;;5053848;28;20007;-65
2024/02/27 09:58:41;;;;;;;;;;;;;;;;;;5065544;28;19924;-65
2024/02/27 10:01:07;;;;;;;;;;;;;;;;;;5073884;28;20004;-65
2024/02/27 10:03:33;;;;;;;;;;;;;;;;;;5072930;28;19924;-65
2024/02/27 10:05:59;;;;;;;;;;;;;;;;;;5073176;28;20036;-65
2024/02/27 10:08:25;;;;;;;;;;;;;;;;;;5058337;28;20350;-65
2024/02/27 10:10:51;;;;;;;;;;;;;;;;;;5053649;28;19943;-65
2024/02/27 10:13:16;;;;;;;;;;;;;;;;;;5052934;28;19921;-65
2024/02/27 10:15:43;;;;;;;;;;;;;;;;;;5065036;28;20370;-65
2024/02/27 10:18:08;;;;;;;;;;;;;;;;;;5057552;28;19921;-66
2024/02/27 10:20:34;;;;;;;;;;;;;;;;;;5064141;28;19931;-66
2024/02/27 10:23:00;;;;;;;;;;;;;;;;;;5053666;28;19955;-66
2024/02/27 10:25:27;;;;;;;;;;;;;;;;;;5068334;28;20397;-66
2024/02/27 10:27:53;;;;;;;;;;;;;;;;;;5073086;28;20003;-66
2024/02/27 10:30:20;;;;;;;;;;;;;;;;;;5073260;28;20015;-66
2024/02/27 10:32:46;;;;;;;;;;;;;;;;;;5072359;28;19963;-66
2024/02/27 10:35:15;;;;;;;;;;;;;;;;;;5073041;28;20282;-66
2024/02/27 10:37:41;;;;;;;;;;;;;;;;;;5062684;28;20038;-66
2024/02/27 10:40:07;;;;;;;;;;;;;;;;;;5072861;28;19962;-65
2024/02/27 10:42:33;;;;;;;;;;;;;;;;;;5073082;28;19921;-65
2024/02/27 10:44:59;;;;;;;;;;;;;;;;;;5072926;28;19978;-65
2024/02/27 10:47:25;;;;;;;;;;;;;;;;;;5072937;28;19929;-65
2024/02/27 10:49:51;;;;;;;;;;;;;;;;;;5059818;28;19921;-65
2024/02/27 10:52:17;;;;;;;;;;;;;;;;;;5054167;28;20298;-66
2024/02/27 10:54:43;;;;;;;;;;;;;;;;;;5057709;28;19939;-66
2024/02/27 10:57:08;;;;;;;;;;;;;;;;;;5071373;28;19920;-66
2024/02/27 10:59:34;;;;;;;;;;;;;;;;;;5071385;28;20444;-64
2024/02/27 11:02:00;;;;;;;;;;;;;;;;;;5071828;28;19927;-65
2024/02/27 11:04:27;;;;;;;;;;;;;;;;;;5058972;28;19925;-65
2024/02/27 11:06:52;;;;;;;;;;;;;;;;;;5051481;28;20856;-65
2024/02/27 11:09:18;;;;;;;;;;;;;;;;;;5068738;28;19920;-65
2024/02/27 11:11:44;;;;;;;;;;;;;;;;;;5071346;28;19928;-65
2024/02/27 11:14:10;;;;;;;;;;;;;;;;;;5071310;28;19928;-65
2024/02/27 11:16:36;;;;;;;;;;;;;;;;;;5068362;28;19928;-65
2024/02/27 11:19:02;;;;;;;;;;;;;;;;;;5066948;28;19931;-64
2024/02/27 11:21:28;;;;;;;;;;;;;;;;;;5071132;28;19920;-65
2024/02/27 11:23:54;;;;;;;;;;;;;;;;;;5056119;28;19925;-65
2024/02/27 11:26:20;;;;;;;;;;;;;;;;;;5065611;28;19920;-65
2024/02/27 11:28:46;;;;;;;;;;;;;;;;;;5072136;28;19952;-65
2024/02/27 11:31:12;;;;;;;;;;;;;;;;;;5072283;28;20108;-65
2024/02/27 11:33:38;;;;;;;;;;;;;;;;;;5053288;28;19925;-65
2024/02/27 11:36:04;;;;;;;;;;;;;;;;;;5072050;28;19920;-65
2024/02/27 11:38:29;;;;;;;;;;;;;;;;;;5072072;28;19966;-65
2024/02/27 11:40:55;;;;;;;;;;;;;;;;;;5069728;28;19936;-65
2024/02/27 11:43:21;;;;;;;;;;;;;;;;;;5064350;28;19925;-65
2024/02/27 11:45:47;;;;;;;;;;;;;;;;;;5084695;28;19920;-65
2024/02/27 11:48:13;;;;;;;;;;;;;;;;;;5071173;28;19986;-65
2024/02/27 11:50:39;;;;;;;;;;;;;;;;;;5071710;28;19928;-65
2024/02/27 11:53:05;;;;;;;;;;;;;;;;;;5056144;28;20023;-65
2024/02/27 11:55:31;;;;;;;;;;;;;;;;;;5057070;28;19971;-65
2024/02/27 11:57:57;;;;;;;;;;;;;;;;;;5037166;28;19955;-65
2024/02/27 12:00:23;;;;;;;;;;;;;;;;;;5071521;28;20647;-65
2024/02/27 12:02:50;;;;;;;;;;;;;;;;;;5066463;28;19928;-66
2024/02/27 12:05:18;;;;;;;;;;;;;;;;;;5068744;28;19920;-65
2024/02/27 12:07:44;;;;;;;;;;;;;;;;;;5071598;28;19927;-65
2024/02/27 12:10:10;;;;;;;;;;;;;;;;;;5071017;28;19928;-65
2024/02/27 12:12:36;;;;;;;;;;;;;;;;;;5070891;28;19966;-65
2024/02/27 12:15:01;;;;;;;;;;;;;;;;;;5051253;28;19925;-65
2024/02/27 12:17:28;;;;;;;;;;;;;;;;;;5052560;28;19920;-65
2024/02/27 12:19:54;;;;;;;;;;;;;;;;;;5053929;28;19931;-65
2024/02/27 12:22:20;;;;;;;;;;;;;;;;;;5054662;28;19921;-66
2024/02/27 12:24:46;;;;;;;;;;;;;;;;;;5064536;22;19932;-66
2024/02/27 12:27:12;;;;;;;;;;;;;;;;;;5067688;28;20316;-66
2024/02/27 12:29:38;;;;;;;;;;;;;;;;;;5061068;28;19921;-65
2024/02/27 12:32:04;;;;;;;;;;;;;;;;;;5057065;28;19921;-65
2024/02/27 12:34:30;;;;;;;;;;;;;;;;;;5061823;28;20423;-66
2024/02/27 12:36:56;;;;;;;;;;;;;;;;;;5051215;28;19974;-66
2024/02/27 12:39:23;;;;;;;;;;;;;;;;;;5052879;28;19924;-66
2024/02/27 12:41:49;;;;;;;;;;;;;;;;;;5065814;28;19928;-66
2024/02/27 12:44:15;;;;;;;;;;;;;;;;;;5069372;28;19927;-66
2024/02/27 12:46:41;;;;;;;;;;;;;;;;;;5070614;28;19931;-66
2024/02/27 12:49:09;;;;;;;;;;;;;;;;;;5056571;28;19971;-66
2024/02/27 12:51:35;;;;;;;;;;;;;;;;;;5070567;28;20011;-66
2024/02/27 12:54:01;;;;;;;;;;;;;;;;;;5055758;28;20019;-65
2024/02/27 12:56:27;;;;;;;;;;;;;;;;;;5043387;28;19921;-66
2024/02/27 12:58:54;;;;;;;;;;;;;;;;;;5046085;28;19921;-66
2024/02/27 13:01:20;;;;;;;;;;;;;;;;;;5042992;28;19921;-66
2024/02/27 13:03:46;;;;;;;;;;;;;;;;;;5052068;28;19932;-66
2024/02/27 13:06:13;;;;;;;;;;;;;;;;;;5053350;28;20350;-66
2024/02/27 13:08:39;;;;;;;;;;;;;;;;;;5059969;28;20019;-66
2024/02/27 13:11:05;;;;;;;;;;;;;;;;;;5062021;28;19928;-66
2024/02/27 13:13:34;;;;;;;;;;;;;;;;;;5059392;28;19924;-66
2024/02/27 13:16:02;;;;;;;;;;;;;;;;;;5057992;28;23225;-66
2024/02/27 13:18:28;;;;;;;;;;;;;;;;;;5070036;28;19920;-66
2024/02/27 13:20:54;;;;;;;;;;;;;;;;;;5064564;28;19931;-66
2024/02/27 13:23:20;;;;;;;;;;;;;;;;;;5053642;28;19931;-66
2024/02/27 13:25:48;;;;;;;;;;;;;;;;;;5053191;28;20293;-66
2024/02/27 13:28:14;;;;;;;;;;;;;;;;;;5066335;28;19947;-66
2024/02/27 13:30:40;;;;;;;;;;;;;;;;;;5052400;28;20252;-66
2024/02/27 13:33:06;;;;;;;;;;;;;;;;;;5057021;28;19925;-66
2024/02/27 13:35:32;;;;;;;;;;;;;;;;;;5074282;28;19931;-66
2024/02/27 13:37:58;;;;;;;;;;;;;;;;;;5074161;28;19948;-66
2024/02/27 13:40:24;;;;;;;;;;;;;;;;;;5074275;28;20011;-66
2024/02/27 13:42:50;;;;;;;;;;;;;;;;;;5069647;28;20050;-66
2024/02/27 13:45:16;;;;;;;;;;;;;;;;;;5064008;28;19928;-66
2024/02/27 13:47:42;;;;;;;;;;;;;;;;;;5071625;28;20391;-66
2024/02/27 13:50:08;;;;;;;;;;;;;;;;;;5073927;28;19927;-66
2024/02/27 13:52:34;;;;;;;;;;;;;;;;;;5074034;28;19924;-66
2024/02/27 13:55:04;;;;;;;;;;;;;;;;;;5071633;28;19935;-66
2024/02/27 13:57:30;;;;;;;;;;;;;;;;;;5053583;28;19927;-65
2024/02/27 13:59:56;;;;;;;;;;;;;;;;;;5053961;28;19974;-65
2024/02/27 14:02:22;;;;;;;;;;;;;;;;;;5061688;28;19956;-66
2024/02/27 14:04:48;;;;;;;;;;;;;;;;;;5071310;28;19920;-66
2024/02/27 14:07:14;;;;;;;;;;;;;;;;;;5071866;28;20309;-66
2024/02/27 14:09:40;;;;;;;;;;;;;;;;;;5071734;28;19924;-66
2024/02/27 14:12:06;;;;;;;;;;;;;;;;;;5073607;28;20381;-66
2024/02/27 14:14:33;;;;;;;;;;;;;;;;;;5072119;28;20416;-66
2024/02/27 14:16:59;;;;;;;;;;;;;;;;;;5073610;28;19974;-65
2024/02/27 14:19:24;;;;;;;;;;;;;;;;;;5064698;28;19964;-65
2024/02/27 14:21:50;;;;;;;;;;;;;;;;;;5052407;28;20341;-65
2024/02/27 14:24:16;;;;;;;;;;;;;;;;;;5061710;28;20051;-65
2024/02/27 14:26:42;;;;;;;;;;;;;;;;;;5049646;28;19928;-65
2024/02/27 14:29:08;;;;;;;;;;;;;;;;;;5065489;28;19920;-65
2024/02/27 14:31:34;;;;;;;;;;;;;;;;;;5071102;28;19927;-65
2024/02/27 14:34:00;;;;;;;;;;;;;;;;;;5071003;28;19971;-65
2024/02/27 14:36:26;;;;;;;;;;;;;;;;;;5052342;28;19968;-65
2024/02/27 14:38:52;;;;;;;;;;;;;;;;;;5073100;28;20366;-64
2024/02/27 14:41:19;;;;;;;;;;;;;;;;;;5071889;28;20401;-64
2024/02/27 14:43:44;;;;;;;;;;;;;;;;;;5070770;28;19932;-64
2024/02/27 14:46:10;;;;;;;;;;;;;;;;;;5073131;28;19921;-64
2024/02/27 14:48:37;;;;;;;;;;;;;;;;;;5070993;28;19924;-65
2024/02/27 14:51:02;;;;;;;;;;;;;;;;;;5068300;28;20361;-65
2024/02/27 14:53:29;;;;;;;;;;;;;;;;;;5071773;28;19920;-65
2024/02/27 14:55:55;;;;;;;;;;;;;;;;;;5070030;28;19924;-65
2024/02/27 14:58:22;;;;;;;;;;;;;;;;;;5051767;28;19948;-65
2024/02/27 15:00:48;;;;;;;;;;;;;;;;;;5051737;28;20041;-65
2024/02/27 15:03:14;;;;;;;;;;;;;;;;;;5051464;28;19928;-65
2024/02/27 15:05:40;;;;;;;;;;;;;;;;;;5034379;28;19925;-65
2024/02/27 15:08:06;;;;;;;;;;;;;;;;;;5051105;28;19920;-65
2024/02/27 15:10:32;;;;;;;;;;;;;;;;;;5056225;28;20294;-65
2024/02/27 15:12:59;;;;;;;;;;;;;;;;;;5071057;28;19926;-65
2024/02/27 15:15:25;;;;;;;;;;;;;;;;;;5069364;28;19924;-65
2024/02/27 15:17:50;;;;;;;;;;;;;;;;;;5066174;28;19924;-65
2024/02/27 15:20:16;;;;;;;;;;;;;;;;;;5060357;28;19933;-65
2024/02/27 15:22:42;;;;;;;;;;;;;;;;;;5064391;28;19928;-65
2024/02/27 15:25:09;;;;;;;;;;;;;;;;;;5070463;28;19924;-65
2024/02/27 15:27:35;;;;;;;;;;;;;;;;;;5066670;28;19931;-65
2024/02/27 15:30:01;;;;;;;;;;;;;;;;;;5045390;28;20062;-65
2024/02/27 15:32:28;;;;;;;;;;;;;;;;;;5062795;28;19927;-65
2024/02/27 15:34:54;;;;;;;;;;;;;;;;;;5051824;28;20333;-65
2024/02/27 15:37:20;;;;;;;;;;;;;;;;;;5052055;28;19967;-65
2024/02/27 15:39:46;;;;;;;;;;;;;;;;;;5051818;28;19972;-64
2024/02/27 15:42:12;;;;;;;;;;;;;;;;;;5052802;28;19924;-65
2024/02/27 15:44:38;;;;;;;;;;;;;;;;;;5066128;28;19931;-65
2024/02/27 15:47:04;;;;;;;;;;;;;;;;;;5053264;28;20335;-64
2024/02/27 15:49:30;;;;;;;;;;;;;;;;;;5071878;28;20438;-64
2024/02/27 15:51:56;;;;;;;;;;;;;;;;;;5071349;28;19936;-64
2024/02/27 15:54:22;;;;;;;;;;;;;;;;;;5063656;28;19924;-64
2024/02/27 15:56:48;;;;;;;;;;;;;;;;;;5067772;28;19929;-64
2024/02/27 15:59:14;;;;;;;;;;;;;;;;;;5069903;28;19928;-64
2024/02/27 16:01:40;;;;;;;;;;;;;;;;;;5060222;28;19925;-64
2024/02/27 16:04:06;;;;;;;;;;;;;;;;;;5058585;28;20390;-64
2024/02/27 16:06:32;;;;;;;;;;;;;;;;;;5056542;28;19924;-66
2024/02/27 16:08:58;;;;;;;;;;;;;;;;;;5070903;28;19931;-64
2024/02/27 16:11:24;;;;;;;;;;;;;;;;;;5069310;28;19927;-64
2024/02/27 16:13:50;;;;;;;;;;;;;;;;;;5067198;28;19920;-65
2024/02/27 16:16:16;;;;;;;;;;;;;;;;;;5068418;28;19934;-65
2024/02/27 16:18:41;;;;;;;;;;;;;;;;;;5059384;28;19971;-65
2024/02/27 16:21:07;;;;;;;;;;;;;;;;;;5071475;28;20015;-65
2024/02/27 16:23:33;;;;;;;;;;;;;;;;;;5069294;28;19970;-65
2024/02/27 16:25:59;;;;;;;;;;;;;;;;;;5067837;28;19960;-65
2024/02/27 16:28:25;;;;;;;;;;;;;;;;;;5067275;28;19986;-65
2024/02/27 16:30:51;;;;;;;;;;;;;;;;;;5060064;28;20409;-65
2024/02/27 16:33:17;;;;;;;;;;;;;;;;;;5070507;28;19924;-65
2024/02/27 16:35:43;;;;;;;;;;;;;;;;;;5061820;28;20652;-65
2024/02/27 16:38:09;;;;;;;;;;;;;;;;;;5058936;28;19928;-65
2024/02/27 16:40:35;;;;;;;;;;;;;;;;;;5061214;28;19927;-65